sensor_id;sensor_type;location;lat;lon;timestamp;P1;durP1;ratioP1;P2;durP2;ratioP2
7213;SDS011;3648;50.614;13.830;2023-09-08T00:00:26;3.97;;;3.50;;
7213;SDS011;3648;50.614;13.830;2023-09-08T00:02:54;4.57;;;3.70;;
7213;SDS011;3648;50.614;13.830;2023-09-08T00:05:21;4.63;;;3.40;;
7213;SDS011;3648;50.614;13.830;2023-09-08T00:07:48;4.37;;;3.67;;
7213;SDS011;3648;50.614;13.830;2023-09-08T00:10:15;4.30;;;3.60;;
7213;SDS011;3648;50.614;13.830;2023-09-08T00:12:42;3.47;;;3.17;;
7213;SDS011;3648;50.614;13.830;2023-09-08T00:15:11;4.70;;;3.67;;
7213;SDS011;3648;50.614;13.830;2023-09-08T00:17:38;4.40;;;3.43;;
7213;SDS011;3648;50.614;13.830;2023-09-08T00:20:05;4.07;;;3.53;;
7213;SDS011;3648;50.614;13.830;2023-09-08T00:22:34;6.03;;;4.03;;
7213;SDS011;3648;50.614;13.830;2023-09-08T00:25:02;6.40;;;4.03;;
7213;SDS011;3648;50.614;13.830;2023-09-08T00:27:29;6.17;;;3.90;;
7213;SDS011;3648;50.614;13.830;2023-09-08T00:29:57;5.17;;;4.27;;
7213;SDS011;3648;50.614;13.830;2023-09-08T00:32:28;6.80;;;4.03;;
7213;SDS011;3648;50.614;13.830;2023-09-08T00:34:55;4.33;;;3.60;;
7213;SDS011;3648;50.614;13.830;2023-09-08T00:37:21;5.03;;;3.87;;
7213;SDS011;3648;50.614;13.830;2023-09-08T00:39:49;5.00;;;3.90;;
7213;SDS011;3648;50.614;13.830;2023-09-08T00:42:16;4.90;;;3.83;;
7213;SDS011;3648;50.614;13.830;2023-09-08T00:44:43;4.50;;;3.63;;
7213;SDS011;3648;50.614;13.830;2023-09-08T00:47:09;5.30;;;4.30;;
7213;SDS011;3648;50.614;13.830;2023-09-08T00:49:38;4.53;;;4.07;;
7213;SDS011;3648;50.614;13.830;2023-09-08T00:52:05;3.87;;;3.50;;
7213;SDS011;3648;50.614;13.830;2023-09-08T00:54:33;5.50;;;3.90;;
7213;SDS011;3648;50.614;13.830;2023-09-08T00:57:01;4.17;;;3.77;;
7213;SDS011;3648;50.614;13.830;2023-09-08T00:59:28;4.97;;;3.83;;
7213;SDS011;3648;50.614;13.830;2023-09-08T01:01:58;4.50;;;3.70;;
7213;SDS011;3648;50.614;13.830;2023-09-08T01:04:25;4.93;;;3.90;;
7213;SDS011;3648;50.614;13.830;2023-09-08T01:06:53;5.53;;;4.10;;
7213;SDS011;3648;50.614;13.830;2023-09-08T01:09:21;4.93;;;4.10;;
7213;SDS011;3648;50.614;13.830;2023-09-08T01:11:50;6.47;;;3.83;;
7213;SDS011;3648;50.614;13.830;2023-09-08T01:14:17;5.37;;;4.13;;
7213;SDS011;3648;50.614;13.830;2023-09-08T01:16:45;4.97;;;4.07;;
7213;SDS011;3648;50.614;13.830;2023-09-08T01:19:13;5.13;;;4.13;;
7213;SDS011;3648;50.614;13.830;2023-09-08T01:21:51;4.23;;;3.83;;
7213;SDS011;3648;50.614;13.830;2023-09-08T01:27:46;6.00;;;4.37;;
7213;SDS011;3648;50.614;13.830;2023-09-08T01:30:16;5.93;;;3.93;;
7213;SDS011;3648;50.614;13.830;2023-09-08T01:32:43;4.47;;;3.87;;
7213;SDS011;3648;50.614;13.830;2023-09-08T01:35:12;4.77;;;4.00;;
7213;SDS011;3648;50.614;13.830;2023-09-08T01:37:40;4.57;;;4.00;;
7213;SDS011;3648;50.614;13.830;2023-09-08T01:40:08;5.70;;;3.63;;
7213;SDS011;3648;50.614;13.830;2023-09-08T01:42:37;4.90;;;4.10;;
7213;SDS011;3648;50.614;13.830;2023-09-08T01:45:05;5.13;;;4.13;;
7213;SDS011;3648;50.614;13.830;2023-09-08T01:47:33;5.07;;;4.20;;
7213;SDS011;3648;50.614;13.830;2023-09-08T01:50:00;4.60;;;3.87;;
7213;SDS011;3648;50.614;13.830;2023-09-08T01:52:27;4.53;;;4.13;;
7213;SDS011;3648;50.614;13.830;2023-09-08T01:54:54;6.93;;;3.97;;
7213;SDS011;3648;50.614;13.830;2023-09-08T01:57:21;4.30;;;3.90;;
7213;SDS011;3648;50.614;13.830;2023-09-08T01:59:50;5.30;;;4.33;;
7213;SDS011;3648;50.614;13.830;2023-09-08T02:02:17;4.70;;;4.07;;
7213;SDS011;3648;50.614;13.830;2023-09-08T02:04:44;4.90;;;4.10;;
7213;SDS011;3648;50.614;13.830;2023-09-08T02:07:11;4.00;;;3.60;;
7213;SDS011;3648;50.614;13.830;2023-09-08T02:09:38;5.47;;;3.97;;
7213;SDS011;3648;50.614;13.830;2023-09-08T02:12:05;5.17;;;3.80;;
7213;SDS011;3648;50.614;13.830;2023-09-08T02:14:32;7.67;;;4.23;;
7213;SDS011;3648;50.614;13.830;2023-09-08T02:17:01;4.57;;;4.00;;
7213;SDS011;3648;50.614;13.830;2023-09-08T02:19:28;4.40;;;4.00;;
7213;SDS011;3648;50.614;13.830;2023-09-08T02:21:55;4.77;;;4.23;;
7213;SDS011;3648;50.614;13.830;2023-09-08T02:24:22;4.67;;;4.13;;
7213;SDS011;3648;50.614;13.830;2023-09-08T02:26:49;4.83;;;4.10;;
7213;SDS011;3648;50.614;13.830;2023-09-08T02:29:16;4.37;;;3.97;;
7213;SDS011;3648;50.614;13.830;2023-09-08T02:31:44;5.07;;;4.07;;
7213;SDS011;3648;50.614;13.830;2023-09-08T02:34:12;4.77;;;4.27;;
7213;SDS011;3648;50.614;13.830;2023-09-08T02:36:39;6.53;;;3.93;;
7213;SDS011;3648;50.614;13.830;2023-09-08T02:39:06;4.93;;;3.80;;
7213;SDS011;3648;50.614;13.830;2023-09-08T02:41:33;5.60;;;4.40;;
7213;SDS011;3648;50.614;13.830;2023-09-08T02:44:00;4.80;;;4.13;;
7213;SDS011;3648;50.614;13.830;2023-09-08T02:46:28;4.97;;;3.90;;
7213;SDS011;3648;50.614;13.830;2023-09-08T02:48:55;4.70;;;4.30;;
7213;SDS011;3648;50.614;13.830;2023-09-08T02:51:23;6.30;;;4.07;;
7213;SDS011;3648;50.614;13.830;2023-09-08T02:53:50;4.63;;;4.13;;
7213;SDS011;3648;50.614;13.830;2023-09-08T02:56:17;4.80;;;3.93;;
7213;SDS011;3648;50.614;13.830;2023-09-08T02:58:44;4.23;;;3.83;;
7213;SDS011;3648;50.614;13.830;2023-09-08T03:01:11;5.20;;;4.10;;
7213;SDS011;3648;50.614;13.830;2023-09-08T03:03:39;4.73;;;4.20;;
7213;SDS011;3648;50.614;13.830;2023-09-08T03:06:07;4.03;;;3.63;;
7213;SDS011;3648;50.614;13.830;2023-09-08T03:08:36;5.57;;;4.30;;
7213;SDS011;3648;50.614;13.830;2023-09-08T03:11:03;5.60;;;4.20;;
7213;SDS011;3648;50.614;13.830;2023-09-08T03:13:30;5.67;;;4.20;;
7213;SDS011;3648;50.614;13.830;2023-09-08T03:16:01;6.70;;;4.37;;
7213;SDS011;3648;50.614;13.830;2023-09-08T03:18:30;5.00;;;4.33;;
7213;SDS011;3648;50.614;13.830;2023-09-08T03:20:57;4.93;;;4.20;;
7213;SDS011;3648;50.614;13.830;2023-09-08T03:23:25;6.17;;;3.87;;
7213;SDS011;3648;50.614;13.830;2023-09-08T03:25:53;6.10;;;4.60;;
7213;SDS011;3648;50.614;13.830;2023-09-08T03:28:20;4.93;;;3.87;;
7213;SDS011;3648;50.614;13.830;2023-09-08T03:30:47;4.40;;;4.00;;
7213;SDS011;3648;50.614;13.830;2023-09-08T03:33:14;5.20;;;4.30;;
7213;SDS011;3648;50.614;13.830;2023-09-08T03:35:41;6.03;;;4.23;;
7213;SDS011;3648;50.614;13.830;2023-09-08T03:38:09;5.03;;;4.33;;
7213;SDS011;3648;50.614;13.830;2023-09-08T03:40:36;5.00;;;4.20;;
7213;SDS011;3648;50.614;13.830;2023-09-08T03:43:05;4.97;;;4.30;;
7213;SDS011;3648;50.614;13.830;2023-09-08T03:45:32;4.73;;;4.20;;
7213;SDS011;3648;50.614;13.830;2023-09-08T03:47:59;4.47;;;4.03;;
7213;SDS011;3648;50.614;13.830;2023-09-08T03:50:26;4.97;;;4.00;;
7213;SDS011;3648;50.614;13.830;2023-09-08T03:52:53;4.80;;;4.10;;
7213;SDS011;3648;50.614;13.830;2023-09-08T03:55:20;4.37;;;3.97;;
7213;SDS011;3648;50.614;13.830;2023-09-08T03:57:47;4.33;;;3.60;;
7213;SDS011;3648;50.614;13.830;2023-09-08T04:00:15;5.07;;;4.27;;
7213;SDS011;3648;50.614;13.830;2023-09-08T04:02:46;5.40;;;4.60;;
7213;SDS011;3648;50.614;13.830;2023-09-08T04:05:14;5.37;;;4.27;;
7213;SDS011;3648;50.614;13.830;2023-09-08T04:07:41;5.37;;;4.20;;
7213;SDS011;3648;50.614;13.830;2023-09-08T04:10:08;4.67;;;4.17;;
7213;SDS011;3648;50.614;13.830;2023-09-08T04:12:35;4.33;;;3.93;;
7213;SDS011;3648;50.614;13.830;2023-09-08T04:15:02;4.87;;;4.17;;
7213;SDS011;3648;50.614;13.830;2023-09-08T04:17:31;4.30;;;3.73;;
7213;SDS011;3648;50.614;13.830;2023-09-08T04:19:58;4.40;;;4.00;;
7213;SDS011;3648;50.614;13.830;2023-09-08T04:22:26;5.13;;;4.63;;
7213;SDS011;3648;50.614;13.830;2023-09-08T04:24:53;5.00;;;3.87;;
7213;SDS011;3648;50.614;13.830;2023-09-08T04:27:21;6.10;;;4.90;;
7213;SDS011;3648;50.614;13.830;2023-09-08T04:29:48;4.93;;;4.07;;
7213;SDS011;3648;50.614;13.830;2023-09-08T04:32:15;4.80;;;4.27;;
7213;SDS011;3648;50.614;13.830;2023-09-08T04:34:43;5.10;;;4.60;;
7213;SDS011;3648;50.614;13.830;2023-09-08T04:37:10;5.33;;;4.50;;
7213;SDS011;3648;50.614;13.830;2023-09-08T04:39:37;4.73;;;4.13;;
7213;SDS011;3648;50.614;13.830;2023-09-08T04:42:05;4.70;;;4.30;;
7213;SDS011;3648;50.614;13.830;2023-09-08T04:44:32;4.93;;;4.33;;
7213;SDS011;3648;50.614;13.830;2023-09-08T04:46:59;5.27;;;4.13;;
7213;SDS011;3648;50.614;13.830;2023-09-08T04:49:26;4.87;;;4.33;;
7213;SDS011;3648;50.614;13.830;2023-09-08T04:51:55;4.83;;;4.33;;
7213;SDS011;3648;50.614;13.830;2023-09-08T04:54:22;4.23;;;3.47;;
7213;SDS011;3648;50.614;13.830;2023-09-08T04:56:52;5.90;;;4.10;;
7213;SDS011;3648;50.614;13.830;2023-09-08T04:59:20;4.77;;;3.80;;
7213;SDS011;3648;50.614;13.830;2023-09-08T05:01:48;5.23;;;4.10;;
7213;SDS011;3648;50.614;13.830;2023-09-08T05:04:16;4.90;;;4.40;;
7213;SDS011;3648;50.614;13.830;2023-09-08T05:06:43;5.63;;;4.07;;
7213;SDS011;3648;50.614;13.830;2023-09-08T05:09:12;5.93;;;4.63;;
7213;SDS011;3648;50.614;13.830;2023-09-08T05:11:40;6.53;;;4.40;;
7213;SDS011;3648;50.614;13.830;2023-09-08T05:14:06;5.07;;;4.43;;
7213;SDS011;3648;50.614;13.830;2023-09-08T05:16:33;4.50;;;4.10;;
7213;SDS011;3648;50.614;13.830;2023-09-08T05:19:10;4.90;;;4.40;;
7213;SDS011;3648;50.614;13.830;2023-09-08T05:21:38;7.67;;;5.10;;
7213;SDS011;3648;50.614;13.830;2023-09-08T05:24:05;4.87;;;4.47;;
7213;SDS011;3648;50.614;13.830;2023-09-08T05:26:36;5.63;;;4.60;;
7213;SDS011;3648;50.614;13.830;2023-09-08T05:29:03;5.77;;;4.70;;
7213;SDS011;3648;50.614;13.830;2023-09-08T05:31:30;6.93;;;5.87;;
7213;SDS011;3648;50.614;13.830;2023-09-08T05:33:57;6.23;;;5.63;;
7213;SDS011;3648;50.614;13.830;2023-09-08T05:36:24;8.03;;;5.23;;
7213;SDS011;3648;50.614;13.830;2023-09-08T05:38:51;6.50;;;5.03;;
7213;SDS011;3648;50.614;13.830;2023-09-08T05:41:17;9.20;;;4.87;;
7213;SDS011;3648;50.614;13.830;2023-09-08T05:43:46;6.03;;;5.17;;
7213;SDS011;3648;50.614;13.830;2023-09-08T05:46:13;4.23;;;3.83;;
7213;SDS011;3648;50.614;13.830;2023-09-08T05:48:40;5.53;;;4.37;;
7213;SDS011;3648;50.614;13.830;2023-09-08T05:51:07;5.03;;;4.40;;
7213;SDS011;3648;50.614;13.830;2023-09-08T05:53:34;7.23;;;4.97;;
7213;SDS011;3648;50.614;13.830;2023-09-08T05:56:04;5.97;;;4.27;;
7213;SDS011;3648;50.614;13.830;2023-09-08T05:58:31;5.50;;;4.83;;
7213;SDS011;3648;50.614;13.830;2023-09-08T06:01:00;6.20;;;4.77;;
7213;SDS011;3648;50.614;13.830;2023-09-08T06:03:27;6.93;;;6.33;;
7213;SDS011;3648;50.614;13.830;2023-09-08T06:05:55;6.67;;;5.10;;
7213;SDS011;3648;50.614;13.830;2023-09-08T06:08:22;5.70;;;5.07;;
7213;SDS011;3648;50.614;13.830;2023-09-08T06:10:49;5.37;;;4.60;;
7213;SDS011;3648;50.614;13.830;2023-09-08T06:13:16;5.47;;;4.97;;
7213;SDS011;3648;50.614;13.830;2023-09-08T06:15:43;6.17;;;4.73;;
7213;SDS011;3648;50.614;13.830;2023-09-08T06:18:11;5.63;;;5.03;;
7213;SDS011;3648;50.614;13.830;2023-09-08T06:20:43;6.57;;;5.00;;
7213;SDS011;3648;50.614;13.830;2023-09-08T06:23:10;4.70;;;4.07;;
7213;SDS011;3648;50.614;13.830;2023-09-08T06:25:37;6.83;;;4.87;;
7213;SDS011;3648;50.614;13.830;2023-09-08T06:28:05;6.73;;;5.03;;
7213;SDS011;3648;50.614;13.830;2023-09-08T06:30:32;6.77;;;5.20;;
7213;SDS011;3648;50.614;13.830;2023-09-08T06:32:58;7.37;;;4.50;;
7213;SDS011;3648;50.614;13.830;2023-09-08T06:35:27;5.23;;;4.67;;
7213;SDS011;3648;50.614;13.830;2023-09-08T06:37:54;5.77;;;5.00;;
7213;SDS011;3648;50.614;13.830;2023-09-08T06:40:22;5.53;;;5.03;;
7213;SDS011;3648;50.614;13.830;2023-09-08T06:42:49;4.80;;;4.40;;
7213;SDS011;3648;50.614;13.830;2023-09-08T06:45:16;5.30;;;4.73;;
7213;SDS011;3648;50.614;13.830;2023-09-08T06:47:43;5.27;;;4.60;;
7213;SDS011;3648;50.614;13.830;2023-09-08T06:50:11;5.53;;;4.57;;
7213;SDS011;3648;50.614;13.830;2023-09-08T06:52:39;5.13;;;4.20;;
7213;SDS011;3648;50.614;13.830;2023-09-08T06:55:07;7.17;;;5.20;;
7213;SDS011;3648;50.614;13.830;2023-09-08T06:57:34;5.23;;;4.63;;
7213;SDS011;3648;50.614;13.830;2023-09-08T07:00:02;6.53;;;5.47;;
7213;SDS011;3648;50.614;13.830;2023-09-08T07:02:32;5.10;;;4.60;;
7213;SDS011;3648;50.614;13.830;2023-09-08T07:04:59;5.03;;;4.53;;
7213;SDS011;3648;50.614;13.830;2023-09-08T07:07:31;6.20;;;5.17;;
7213;SDS011;3648;50.614;13.830;2023-09-08T07:09:59;5.60;;;5.00;;
7213;SDS011;3648;50.614;13.830;2023-09-08T07:12:27;5.37;;;4.80;;
7213;SDS011;3648;50.614;13.830;2023-09-08T07:14:54;5.70;;;4.70;;
7213;SDS011;3648;50.614;13.830;2023-09-08T07:17:21;7.93;;;4.90;;
7213;SDS011;3648;50.614;13.830;2023-09-08T07:19:48;5.40;;;4.67;;
7213;SDS011;3648;50.614;13.830;2023-09-08T07:22:15;5.37;;;4.83;;
7213;SDS011;3648;50.614;13.830;2023-09-08T07:24:42;4.63;;;4.20;;
7213;SDS011;3648;50.614;13.830;2023-09-08T07:27:11;5.67;;;5.00;;
7213;SDS011;3648;50.614;13.830;2023-09-08T07:29:39;6.07;;;5.27;;
7213;SDS011;3648;50.614;13.830;2023-09-08T07:32:06;6.73;;;4.93;;
7213;SDS011;3648;50.614;13.830;2023-09-08T07:34:34;6.13;;;5.07;;
7213;SDS011;3648;50.614;13.830;2023-09-08T07:37:00;7.53;;;5.77;;
7213;SDS011;3648;50.614;13.830;2023-09-08T07:39:28;5.30;;;4.80;;
7213;SDS011;3648;50.614;13.830;2023-09-08T07:41:55;6.67;;;5.10;;
7213;SDS011;3648;50.614;13.830;2023-09-08T07:44:24;7.27;;;5.33;;
7213;SDS011;3648;50.614;13.830;2023-09-08T07:46:51;5.93;;;5.30;;
7213;SDS011;3648;50.614;13.830;2023-09-08T07:49:20;6.07;;;4.73;;
7213;SDS011;3648;50.614;13.830;2023-09-08T07:51:48;6.73;;;5.23;;
7213;SDS011;3648;50.614;13.830;2023-09-08T07:54:15;5.97;;;5.07;;
7213;SDS011;3648;50.614;13.830;2023-09-08T07:56:42;5.50;;;5.00;;
7213;SDS011;3648;50.614;13.830;2023-09-08T07:59:08;5.83;;;5.27;;
7213;SDS011;3648;50.614;13.830;2023-09-08T08:01:37;6.60;;;4.50;;
7213;SDS011;3648;50.614;13.830;2023-09-08T08:04:04;6.63;;;5.37;;
7213;SDS011;3648;50.614;13.830;2023-09-08T08:06:31;6.00;;;5.03;;
7213;SDS011;3648;50.614;13.830;2023-09-08T08:08:57;5.70;;;4.90;;
7213;SDS011;3648;50.614;13.830;2023-09-08T08:11:24;5.83;;;5.13;;
7213;SDS011;3648;50.614;13.830;2023-09-08T08:13:51;5.30;;;4.80;;
7213;SDS011;3648;50.614;13.830;2023-09-08T08:16:18;6.07;;;5.30;;
7213;SDS011;3648;50.614;13.830;2023-09-08T08:18:48;5.23;;;4.73;;
7213;SDS011;3648;50.614;13.830;2023-09-08T08:21:15;7.13;;;5.40;;
7213;SDS011;3648;50.614;13.830;2023-09-08T08:23:42;6.07;;;4.93;;
7213;SDS011;3648;50.614;13.830;2023-09-08T08:26:09;5.83;;;4.73;;
7213;SDS011;3648;50.614;13.830;2023-09-08T08:28:35;5.67;;;5.00;;
7213;SDS011;3648;50.614;13.830;2023-09-08T08:31:02;5.20;;;4.70;;
7213;SDS011;3648;50.614;13.830;2023-09-08T08:33:30;6.00;;;5.50;;
7213;SDS011;3648;50.614;13.830;2023-09-08T08:35:58;5.97;;;5.37;;
7213;SDS011;3648;50.614;13.830;2023-09-08T08:38:25;5.57;;;5.03;;
7213;SDS011;3648;50.614;13.830;2023-09-08T08:40:52;6.23;;;5.47;;
7213;SDS011;3648;50.614;13.830;2023-09-08T08:43:20;6.37;;;5.27;;
7213;SDS011;3648;50.614;13.830;2023-09-08T08:45:49;6.67;;;5.00;;
7213;SDS011;3648;50.614;13.830;2023-09-08T08:48:17;6.10;;;5.50;;
7213;SDS011;3648;50.614;13.830;2023-09-08T08:50:46;5.50;;;4.93;;
7213;SDS011;3648;50.614;13.830;2023-09-08T08:53:15;4.97;;;4.47;;
7213;SDS011;3648;50.614;13.830;2023-09-08T08:55:46;6.87;;;4.87;;
7213;SDS011;3648;50.614;13.830;2023-09-08T08:58:16;6.33;;;5.20;;
7213;SDS011;3648;50.614;13.830;2023-09-08T09:00:46;6.57;;;4.93;;
7213;SDS011;3648;50.614;13.830;2023-09-08T09:03:13;5.60;;;4.67;;
7213;SDS011;3648;50.614;13.830;2023-09-08T09:05:40;6.07;;;5.40;;
7213;SDS011;3648;50.614;13.830;2023-09-08T09:08:08;6.33;;;4.50;;
7213;SDS011;3648;50.614;13.830;2023-09-08T09:10:38;5.20;;;4.33;;
7213;SDS011;3648;50.614;13.830;2023-09-08T09:13:05;6.50;;;4.77;;
7213;SDS011;3648;50.614;13.830;2023-09-08T09:15:32;5.30;;;4.70;;
7213;SDS011;3648;50.614;13.830;2023-09-08T09:18:03;6.33;;;4.47;;
7213;SDS011;3648;50.614;13.830;2023-09-08T09:20:31;5.17;;;4.67;;
7213;SDS011;3648;50.614;13.830;2023-09-08T09:22:58;6.43;;;4.17;;
7213;SDS011;3648;50.614;13.830;2023-09-08T09:25:27;5.53;;;4.47;;
7213;SDS011;3648;50.614;13.830;2023-09-08T09:27:57;5.53;;;4.70;;
7213;SDS011;3648;50.614;13.830;2023-09-08T09:30:25;5.70;;;4.80;;
7213;SDS011;3648;50.614;13.830;2023-09-08T09:32:59;5.30;;;4.60;;
7213;SDS011;3648;50.614;13.830;2023-09-08T09:38:09;5.10;;;4.40;;
7213;SDS011;3648;50.614;13.830;2023-09-08T09:40:37;4.77;;;4.13;;
7213;SDS011;3648;50.614;13.830;2023-09-08T09:43:07;5.07;;;4.43;;
7213;SDS011;3648;50.614;13.830;2023-09-08T09:45:35;4.63;;;4.13;;
7213;SDS011;3648;50.614;13.830;2023-09-08T09:48:05;6.07;;;4.33;;
7213;SDS011;3648;50.614;13.830;2023-09-08T09:50:33;6.63;;;4.63;;
7213;SDS011;3648;50.614;13.830;2023-09-08T09:53:03;6.50;;;4.63;;
7213;SDS011;3648;50.614;13.830;2023-09-08T09:55:36;4.50;;;4.10;;
7213;SDS011;3648;50.614;13.830;2023-09-08T09:58:05;7.20;;;4.70;;
7213;SDS011;3648;50.614;13.830;2023-09-08T10:00:35;5.27;;;4.73;;
7213;SDS011;3648;50.614;13.830;2023-09-08T10:03:03;5.30;;;4.80;;
7213;SDS011;3648;50.614;13.830;2023-09-08T10:05:31;5.57;;;4.50;;
7213;SDS011;3648;50.614;13.830;2023-09-08T10:07:58;8.83;;;4.47;;
7213;SDS011;3648;50.614;13.830;2023-09-08T10:10:26;5.70;;;4.47;;
7213;SDS011;3648;50.614;13.830;2023-09-08T10:12:56;5.17;;;3.70;;
7213;SDS011;3648;50.614;13.830;2023-09-08T10:15:30;4.47;;;3.80;;
7213;SDS011;3648;50.614;13.830;2023-09-08T10:17:58;15.70;;;4.77;;
7213;SDS011;3648;50.614;13.830;2023-09-08T10:20:29;4.63;;;4.00;;
7213;SDS011;3648;50.614;13.830;2023-09-08T10:22:59;5.47;;;3.57;;
7213;SDS011;3648;50.614;13.830;2023-09-08T10:25:31;4.40;;;3.30;;
7213;SDS011;3648;50.614;13.830;2023-09-08T10:28:01;6.90;;;3.57;;
7213;SDS011;3648;50.614;13.830;2023-09-08T10:30:31;8.00;;;3.60;;
7213;SDS011;3648;50.614;13.830;2023-09-08T10:32:58;3.50;;;3.00;;
7213;SDS011;3648;50.614;13.830;2023-09-08T10:35:27;3.83;;;3.43;;
7213;SDS011;3648;50.614;13.830;2023-09-08T10:38:07;6.07;;;3.50;;
7213;SDS011;3648;50.614;13.830;2023-09-08T10:40:48;3.40;;;3.10;;
7213;SDS011;3648;50.614;13.830;2023-09-08T10:43:15;4.97;;;3.57;;
7213;SDS011;3648;50.614;13.830;2023-09-08T10:45:46;5.40;;;3.70;;
7213;SDS011;3648;50.614;13.830;2023-09-08T10:48:13;4.77;;;3.17;;
7213;SDS011;3648;50.614;13.830;2023-09-08T10:50:41;4.10;;;3.20;;
7213;SDS011;3648;50.614;13.830;2023-09-08T10:53:11;4.77;;;3.00;;
7213;SDS011;3648;50.614;13.830;2023-09-08T10:55:43;4.13;;;2.80;;
7213;SDS011;3648;50.614;13.830;2023-09-08T10:58:20;4.20;;;3.13;;
7213;SDS011;3648;50.614;13.830;2023-09-08T11:00:56;3.97;;;3.13;;
7213;SDS011;3648;50.614;13.830;2023-09-08T11:03:27;4.57;;;3.57;;
7213;SDS011;3648;50.614;13.830;2023-09-08T11:06:09;5.33;;;3.23;;
7213;SDS011;3648;50.614;13.830;2023-09-08T11:08:37;3.40;;;3.00;;
7213;SDS011;3648;50.614;13.830;2023-09-08T11:11:07;4.73;;;3.47;;
7213;SDS011;3648;50.614;13.830;2023-09-08T11:13:36;5.57;;;3.10;;
7213;SDS011;3648;50.614;13.830;2023-09-08T11:16:06;4.10;;;3.40;;
7213;SDS011;3648;50.614;13.830;2023-09-08T11:18:33;3.10;;;2.80;;
7213;SDS011;3648;50.614;13.830;2023-09-08T11:21:01;5.40;;;3.60;;
7213;SDS011;3648;50.614;13.830;2023-09-08T11:23:28;3.97;;;3.30;;
7213;SDS011;3648;50.614;13.830;2023-09-08T11:25:56;5.33;;;3.23;;
7213;SDS011;3648;50.614;13.830;2023-09-08T11:28:23;4.10;;;3.70;;
7213;SDS011;3648;50.614;13.830;2023-09-08T11:30:52;4.03;;;3.30;;
7213;SDS011;3648;50.614;13.830;2023-09-08T11:33:23;4.93;;;3.13;;
7213;SDS011;3648;50.614;13.830;2023-09-08T11:35:50;4.07;;;3.67;;
7213;SDS011;3648;50.614;13.830;2023-09-08T11:38:24;3.43;;;3.10;;
7213;SDS011;3648;50.614;13.830;2023-09-08T11:40:52;4.33;;;3.40;;
7213;SDS011;3648;50.614;13.830;2023-09-08T11:43:19;4.50;;;3.30;;
7213;SDS011;3648;50.614;13.830;2023-09-08T11:45:47;5.97;;;4.03;;
7213;SDS011;3648;50.614;13.830;2023-09-08T11:48:14;4.23;;;3.70;;
7213;SDS011;3648;50.614;13.830;2023-09-08T11:50:43;3.83;;;3.37;;
7213;SDS011;3648;50.614;13.830;2023-09-08T11:53:10;3.90;;;3.23;;
7213;SDS011;3648;50.614;13.830;2023-09-08T11:55:37;4.17;;;3.63;;
7213;SDS011;3648;50.614;13.830;2023-09-08T11:58:04;4.87;;;3.63;;
7213;SDS011;3648;50.614;13.830;2023-09-08T12:00:32;5.80;;;3.70;;
7213;SDS011;3648;50.614;13.830;2023-09-08T12:03:09;4.00;;;3.57;;
7213;SDS011;3648;50.614;13.830;2023-09-08T12:05:37;4.43;;;4.03;;
7213;SDS011;3648;50.614;13.830;2023-09-08T12:08:06;4.20;;;3.50;;
7213;SDS011;3648;50.614;13.830;2023-09-08T12:10:37;3.50;;;3.20;;
7213;SDS011;3648;50.614;13.830;2023-09-08T12:13:05;4.13;;;3.73;;
7213;SDS011;3648;50.614;13.830;2023-09-08T12:15:32;4.43;;;3.70;;
7213;SDS011;3648;50.614;13.830;2023-09-08T12:18:00;3.50;;;3.20;;
7213;SDS011;3648;50.614;13.830;2023-09-08T12:20:28;4.37;;;3.57;;
7213;SDS011;3648;50.614;13.830;2023-09-08T12:22:57;7.80;;;3.80;;
7213;SDS011;3648;50.614;13.830;2023-09-08T12:25:27;3.90;;;3.47;;
7213;SDS011;3648;50.614;13.830;2023-09-08T12:27:56;3.80;;;3.40;;
7213;SDS011;3648;50.614;13.830;2023-09-08T12:30:24;4.03;;;3.57;;
7213;SDS011;3648;50.614;13.830;2023-09-08T12:32:55;4.27;;;3.37;;
7213;SDS011;3648;50.614;13.830;2023-09-08T12:35:23;4.13;;;3.60;;
7213;SDS011;3648;50.614;13.830;2023-09-08T12:37:54;3.70;;;3.40;;
7213;SDS011;3648;50.614;13.830;2023-09-08T12:40:26;3.80;;;3.37;;
7213;SDS011;3648;50.614;13.830;2023-09-08T12:42:54;3.17;;;2.87;;
7213;SDS011;3648;50.614;13.830;2023-09-08T12:45:23;3.80;;;3.20;;
7213;SDS011;3648;50.614;13.830;2023-09-08T12:47:52;4.80;;;3.17;;
7213;SDS011;3648;50.614;13.830;2023-09-08T12:50:20;4.87;;;2.90;;
7213;SDS011;3648;50.614;13.830;2023-09-08T12:52:47;3.23;;;2.93;;
7213;SDS011;3648;50.614;13.830;2023-09-08T12:55:14;3.63;;;3.20;;
7213;SDS011;3648;50.614;13.830;2023-09-08T12:57:43;3.23;;;2.73;;
7213;SDS011;3648;50.614;13.830;2023-09-08T13:00:10;4.83;;;3.40;;
7213;SDS011;3648;50.614;13.830;2023-09-08T13:02:38;4.57;;;3.13;;
7213;SDS011;3648;50.614;13.830;2023-09-08T13:05:06;3.47;;;3.17;;
7213;SDS011;3648;50.614;13.830;2023-09-08T13:07:34;3.50;;;2.73;;
7213;SDS011;3648;50.614;13.830;2023-09-08T13:10:00;4.50;;;2.87;;
7213;SDS011;3648;50.614;13.830;2023-09-08T13:12:27;4.03;;;3.10;;
7213;SDS011;3648;50.614;13.830;2023-09-08T13:14:57;3.13;;;2.60;;
7213;SDS011;3648;50.614;13.830;2023-09-08T13:17:24;5.00;;;2.77;;
7213;SDS011;3648;50.614;13.830;2023-09-08T13:19:51;4.33;;;3.10;;
7213;SDS011;3648;50.614;13.830;2023-09-08T13:22:20;3.13;;;2.83;;
7213;SDS011;3648;50.614;13.830;2023-09-08T13:24:46;2.90;;;2.60;;
7213;SDS011;3648;50.614;13.830;2023-09-08T13:27:13;3.50;;;2.60;;
7213;SDS011;3648;50.614;13.830;2023-09-08T13:29:42;2.97;;;2.70;;
7213;SDS011;3648;50.614;13.830;2023-09-08T13:32:11;2.97;;;2.57;;
7213;SDS011;3648;50.614;13.830;2023-09-08T13:34:38;3.67;;;2.90;;
7213;SDS011;3648;50.614;13.830;2023-09-08T13:37:04;3.30;;;3.00;;
7213;SDS011;3648;50.614;13.830;2023-09-08T13:39:31;4.90;;;3.20;;
7213;SDS011;3648;50.614;13.830;2023-09-08T13:41:59;3.90;;;3.20;;
7213;SDS011;3648;50.614;13.830;2023-09-08T13:44:27;3.43;;;2.80;;
7213;SDS011;3648;50.614;13.830;2023-09-08T13:46:54;3.57;;;3.00;;
7213;SDS011;3648;50.614;13.830;2023-09-08T13:49:23;3.80;;;3.07;;
7213;SDS011;3648;50.614;13.830;2023-09-08T13:51:49;3.37;;;2.73;;
7213;SDS011;3648;50.614;13.830;2023-09-08T13:54:18;4.07;;;2.93;;
7213;SDS011;3648;50.614;13.830;2023-09-08T13:56:45;3.20;;;2.73;;
7213;SDS011;3648;50.614;13.830;2023-09-08T13:59:24;3.47;;;3.13;;
7213;SDS011;3648;50.614;13.830;2023-09-08T14:01:51;4.30;;;3.00;;
7213;SDS011;3648;50.614;13.830;2023-09-08T14:04:19;3.40;;;2.47;;
7213;SDS011;3648;50.614;13.830;2023-09-08T14:06:47;4.50;;;3.27;;
7213;SDS011;3648;50.614;13.830;2023-09-08T14:09:14;3.67;;;2.97;;
7213;SDS011;3648;50.614;13.830;2023-09-08T14:11:41;3.53;;;2.90;;
7213;SDS011;3648;50.614;13.830;2023-09-08T14:14:08;3.57;;;3.07;;
7213;SDS011;3648;50.614;13.830;2023-09-08T14:16:35;3.20;;;2.90;;
7213;SDS011;3648;50.614;13.830;2023-09-08T14:19:02;3.10;;;2.80;;
7213;SDS011;3648;50.614;13.830;2023-09-08T14:21:30;3.33;;;2.83;;
7213;SDS011;3648;50.614;13.830;2023-09-08T14:23:58;7.63;;;3.10;;
7213;SDS011;3648;50.614;13.830;2023-09-08T14:26:25;4.23;;;3.13;;
7213;SDS011;3648;50.614;13.830;2023-09-08T14:28:52;5.57;;;3.07;;
7213;SDS011;3648;50.614;13.830;2023-09-08T14:31:19;3.50;;;3.10;;
7213;SDS011;3648;50.614;13.830;2023-09-08T14:33:46;3.80;;;2.83;;
7213;SDS011;3648;50.614;13.830;2023-09-08T14:36:16;6.03;;;3.17;;
7213;SDS011;3648;50.614;13.830;2023-09-08T14:38:43;5.03;;;3.00;;
7213;SDS011;3648;50.614;13.830;2023-09-08T14:41:12;3.20;;;2.90;;
7213;SDS011;3648;50.614;13.830;2023-09-08T14:43:39;5.43;;;3.60;;
7213;SDS011;3648;50.614;13.830;2023-09-08T14:46:06;3.13;;;2.83;;
7213;SDS011;3648;50.614;13.830;2023-09-08T14:48:33;3.77;;;3.10;;
7213;SDS011;3648;50.614;13.830;2023-09-08T14:51:01;3.63;;;3.10;;
7213;SDS011;3648;50.614;13.830;2023-09-08T14:53:29;3.57;;;2.73;;
7213;SDS011;3648;50.614;13.830;2023-09-08T14:55:56;4.73;;;3.20;;
7213;SDS011;3648;50.614;13.830;2023-09-08T14:58:25;3.87;;;3.47;;
7213;SDS011;3648;50.614;13.830;2023-09-08T15:00:58;3.13;;;2.83;;
7213;SDS011;3648;50.614;13.830;2023-09-08T15:03:28;4.87;;;3.20;;
7213;SDS011;3648;50.614;13.830;2023-09-08T15:05:57;4.40;;;2.77;;
7213;SDS011;3648;50.614;13.830;2023-09-08T15:08:24;3.97;;;3.37;;
7213;SDS011;3648;50.614;13.830;2023-09-08T15:10:51;4.50;;;2.87;;